Sangary, Russia
Current Conditions -  °F | °C
As of 12:00 PM on Thursday 27 Nov 2014 (Local Time) from UEEE Reporting Station
Clear Clear  
Wind Chill: -33°   Ceiling: Unl
Heat Index: -15°   Visibility: 6mi
Dew Point: -24°   Wind: 9mph
Humidity: 64%   Direction: 280°W
Pressure: 29.85"   Gusts: NA
Location:  63.97°N, 127.47°E
Report Text: UEEE 270300Z 28004MPS CAVOK M26/M31 Q1011 NOSIG RMK QFE75023490150
Loading
Personal Weather Stations






























Interactive Weather Map New forecast layout! Learn more

10-Day Weather Forecast

Advertisements
Track Severe Weather on mobile